Time;durP1;ratioP1;P1;durP2;ratioP2;P2;SDS_P1;SDS_P2;PMS_P1;PMS_P2;Temp;Humidity;BMP_temperature;BMP_pressure;BME280_temperature;BME280_humidity;BME280_pressure;Samples;Min_cycle;Max_cycle;Signal;HPM_P1;HPM_P2
2022/09/20 00:02:16;;;;;;;4.15;3.75;;;;;;;;;;5039866;28;20024;-77
2022/09/20 00:04:41;;;;;;;4.00;3.70;;;;;;;;;;5075799;28;20060;-77
2022/09/20 00:07:07;;;;;;;4.45;3.83;;;;;;;;;;5075283;28;20051;-77
2022/09/20 00:09:33;;;;;;;6.15;4.00;;;;;;;;;;5075059;28;20040;-77
2022/09/20 00:11:59;;;;;;;4.22;3.88;;;;;;;;;;5074732;28;20031;-77
2022/09/20 00:18:04;;;;;;;4.97;3.78;;;;;;;;;;5097595;22;20092;-77
2022/09/20 00:20:29;;;;;;;4.18;3.88;;;;;;;;;;5073137;28;20063;-77
2022/09/20 00:22:55;;;;;;;4.35;3.53;;;;;;;;;;5073223;28;20090;-77
2022/09/20 00:25:21;;;;;;;4.38;3.67;;;;;;;;;;5074202;28;20028;-77
2022/09/20 00:27:46;;;;;;;4.05;3.65;;;;;;;;;;5072758;28;20433;-77
2022/09/20 00:30:12;;;;;;;4.30;3.60;;;;;;;;;;5073426;28;20108;-78
2022/09/20 00:32:38;;;;;;;4.20;3.80;;;;;;;;;;5072728;28;20012;-77
2022/09/20 00:35:12;;;;;;;4.78;3.72;;;;;;;;;;5072973;28;20049;-78
2022/09/20 00:37:41;;;;;;;4.25;3.85;;;;;;;;;;5074188;28;20465;-77
2022/09/20 00:40:08;;;;;;;3.75;3.55;;;;;;;;;;5073758;28;20499;-78
2022/09/20 00:42:34;;;;;;;4.25;3.78;;;;;;;;;;5073847;28;20029;-77
2022/09/20 00:45:18;;;;;;;6.82;4.07;;;;;;;;;;5072540;28;20025;-77
2022/09/20 00:47:52;;;;;;;3.80;3.50;;;;;;;;;;5073780;28;20112;-76
2022/09/20 00:50:40;;;;;;;3.35;3.08;;;;;;;;;;5055479;28;20458;-76
2022/09/20 00:53:14;;;;;;;3.38;3.17;;;;;;;;;;5055631;28;20036;-76
2022/09/20 00:55:44;;;;;;;3.75;3.40;;;;;;;;;;5073738;28;20032;-76
2022/09/20 00:58:10;;;;;;;3.67;3.37;;;;;;;;;;5073641;28;20055;-75
2022/09/20 01:00:36;;;;;;;3.25;3.05;;;;;;;;;;5074969;28;20024;-75
2022/09/20 01:03:03;;;;;;;3.28;3.08;;;;;;;;;;5076786;28;20017;-75
2022/09/20 01:05:29;;;;;;;3.55;3.05;;;;;;;;;;5077556;28;20064;-76
2022/09/20 01:07:55;;;;;;;3.00;2.80;;;;;;;;;;5075313;28;20078;-76
2022/09/20 01:10:20;;;;;;;4.05;3.17;;;;;;;;;;5075919;28;20036;-77
2022/09/20 01:12:47;;;;;;;3.92;3.20;;;;;;;;;;5076139;28;20039;-77
2022/09/20 01:15:14;;;;;;;2.80;2.60;;;;;;;;;;5074614;28;20043;-77
2022/09/20 01:17:43;;;;;;;2.88;2.60;;;;;;;;;;5075221;28;20108;-77
2022/09/20 01:20:15;;;;;;;3.42;2.80;;;;;;;;;;5092562;28;20122;-76
2022/09/20 01:22:40;;;;;;;2.80;2.60;;;;;;;;;;5095044;28;20048;-77
2022/09/20 01:25:29;;;;;;;2.97;2.78;;;;;;;;;;5077518;28;20375;-77
2022/09/20 01:27:55;;;;;;;4.85;2.80;;;;;;;;;;5095231;28;20035;-77
2022/09/20 01:30:22;;;;;;;2.67;2.58;;;;;;;;;;5076951;28;20094;-77
2022/09/20 01:32:58;;;;;;;2.45;2.35;;;;;;;;;;5095190;28;20032;-77
2022/09/20 01:35:24;;;;;;;2.50;2.40;;;;;;;;;;5094575;28;20040;-77
2022/09/20 01:38:10;;;;;;;2.65;2.50;;;;;;;;;;5094730;28;20027;-77
2022/09/20 01:40:46;;;;;;;2.17;2.08;;;;;;;;;;5080030;28;20028;-76
2022/09/20 01:43:20;;;;;;;2.28;2.17;;;;;;;;;;5078067;28;20073;-75
2022/09/20 01:45:47;;;;;;;2.30;2.08;;;;;;;;;;5097370;28;20098;-75
2022/09/20 01:48:21;;;;;;;2.25;2.15;;;;;;;;;;5079586;28;20462;-76
2022/09/20 01:50:49;;;;;;;2.25;2.15;;;;;;;;;;5096978;28;20040;-76
2022/09/20 01:53:21;;;;;;;2.15;2.05;;;;;;;;;;5097608;28;20043;-76
2022/09/20 01:56:04;;;;;;;2.38;2.28;;;;;;;;;;5078722;28;20036;-76
2022/09/20 01:58:38;;;;;;;2.30;2.20;;;;;;;;;;5097239;28;20082;-76
2022/09/20 02:04:14;;;;;;;2.35;2.25;;;;;;;;;;5100986;23;20052;-75
2022/09/20 02:06:58;;;;;;;3.50;2.00;;;;;;;;;;5096868;28;20028;-75
2022/09/20 02:09:23;;;;;;;2.00;1.90;;;;;;;;;;5061783;28;20118;-76
2022/09/20 02:12:02;;;;;;;3.88;2.08;;;;;;;;;;5096695;28;20051;-75
2022/09/20 02:14:30;;;;;;;2.30;2.10;;;;;;;;;;5096805;28;20039;-75
2022/09/20 02:17:10;;;;;;;2.53;2.33;;;;;;;;;;5078391;28;20012;-75
2022/09/20 02:19:42;;;;;;;1.80;1.70;;;;;;;;;;5096803;28;20036;-74
2022/09/20 02:22:26;;;;;;;2.10;2.00;;;;;;;;;;5096959;28;20475;-75
2022/09/20 02:24:54;;;;;;;2.50;2.30;;;;;;;;;;5096813;28;20024;-73
2022/09/20 02:27:20;;;;;;;2.30;2.20;;;;;;;;;;5096490;28;20533;-72
2022/09/20 02:30:04;;;;;;;2.13;1.90;;;;;;;;;;5078089;28;20036;-72
2022/09/20 02:32:38;;;;;;;1.90;1.80;;;;;;;;;;5061365;28;20077;-74
2022/09/20 02:35:07;;;;;;;1.98;1.88;;;;;;;;;;5096270;28;20115;-74
2022/09/20 02:37:32;;;;;;;2.10;2.00;;;;;;;;;;5096771;28;20022;-74
2022/09/20 02:40:16;;;;;;;1.95;1.70;;;;;;;;;;5096137;28;20514;-74
2022/09/20 02:43:00;;;;;;;1.80;1.70;;;;;;;;;;5096052;28;20111;-74
2022/09/20 02:45:31;;;;;;;2.00;1.90;;;;;;;;;;5077869;28;20063;-75
2022/09/20 02:48:01;;;;;;;2.22;2.13;;;;;;;;;;5077984;28;20115;-74
2022/09/20 02:50:26;;;;;;;1.92;1.73;;;;;;;;;;5096527;28;20020;-75
2022/09/20 02:52:56;;;;;;;1.52;1.42;;;;;;;;;;5077596;28;20463;-75
2022/09/20 02:55:33;;;;;;;2.40;2.20;;;;;;;;;;5096090;28;20016;-75
2022/09/20 02:58:12;;;;;;;1.80;1.70;;;;;;;;;;5077635;28;20024;-74
2022/09/20 03:00:41;;;;;;;1.80;1.70;;;;;;;;;;5095867;28;20032;-74
2022/09/20 03:03:15;;;;;;;1.73;1.63;;;;;;;;;;5095470;28;20071;-74
2022/09/20 03:06:11;;;;;;;1.98;1.77;;;;;;;;;;5095953;28;20472;-74
2022/09/20 03:08:55;;;;;;;1.80;1.70;;;;;;;;;;5077995;28;20505;-74
2022/09/20 03:11:45;;;;;;;1.70;1.60;;;;;;;;;;5077306;28;20130;-73
2022/09/20 03:14:10;;;;;;;2.13;1.80;;;;;;;;;;5095717;28;20058;-73
2022/09/20 03:16:57;;;;;;;3.10;1.80;;;;;;;;;;5060593;28;20548;-73
2022/09/20 03:19:25;;;;;;;1.80;1.70;;;;;;;;;;5077199;28;20036;-73
2022/09/20 03:22:09;;;;;;;2.17;1.98;;;;;;;;;;5095458;28;20095;-73
2022/09/20 03:24:43;;;;;;;2.13;2.00;;;;;;;;;;5077782;28;20578;-73
2022/09/20 03:27:29;;;;;;;2.38;1.80;;;;;;;;;;5095252;28;20503;-74
2022/09/20 03:30:00;;;;;;;2.20;2.10;;;;;;;;;;5095465;28;20051;-75
2022/09/20 03:32:26;;;;;;;2.08;1.88;;;;;;;;;;5095123;28;20471;-73
2022/09/20 03:34:52;;;;;;;3.72;1.98;;;;;;;;;;5107112;22;20067;-75
2022/09/20 03:37:24;;;;;;;1.70;1.60;;;;;;;;;;5086423;23;20320;-74
2022/09/20 03:39:49;;;;;;;2.10;2.00;;;;;;;;;;5077392;28;20505;-74
2022/09/20 03:42:20;;;;;;;1.90;1.80;;;;;;;;;;5095323;28;20012;-73
2022/09/20 03:44:46;;;;;;;1.73;1.63;;;;;;;;;;5077099;28;20027;-73
2022/09/20 03:47:17;;;;;;;1.98;1.88;;;;;;;;;;5077012;28;20102;-72
2022/09/20 03:49:44;;;;;;;2.25;1.90;;;;;;;;;;5095290;28;20028;-72
2022/09/20 03:52:34;;;;;;;1.80;1.70;;;;;;;;;;5095385;28;20082;-72
2022/09/20 03:55:09;;;;;;;2.35;1.90;;;;;;;;;;5028491;28;20464;-72
2022/09/20 03:57:38;;;;;;;2.63;1.60;;;;;;;;;;5076842;28;20053;-73
2022/09/20 04:00:06;;;;;;;1.83;1.73;;;;;;;;;;5076803;28;20055;-74
2022/09/20 04:02:43;;;;;;;2.25;1.90;;;;;;;;;;5077565;28;20035;-74
2022/09/20 04:05:13;;;;;;;2.17;1.92;;;;;;;;;;5075917;28;20488;-73
2022/09/20 04:07:56;;;;;;;2.17;1.70;;;;;;;;;;5094755;28;20442;-74
2022/09/20 04:10:46;;;;;;;3.75;1.67;;;;;;;;;;5094604;28;20105;-73
2022/09/20 04:13:33;;;;;;;2.00;1.90;;;;;;;;;;5094894;28;20039;-74
2022/09/20 04:16:17;;;;;;;3.17;2.00;;;;;;;;;;5094624;28;20079;-73
2022/09/20 04:18:48;;;;;;;4.22;1.85;;;;;;;;;;5094502;28;20110;-73
2022/09/20 04:21:22;;;;;;;3.67;1.95;;;;;;;;;;5094178;28;20061;-73
2022/09/20 04:23:54;;;;;;;1.77;1.67;;;;;;;;;;5075790;28;20050;-73
2022/09/20 04:26:23;;;;;;;2.20;2.08;;;;;;;;;;5075349;28;20392;-73
2022/09/20 04:29:04;;;;;;;2.20;1.90;;;;;;;;;;5093965;28;20107;-73
2022/09/20 04:31:36;;;;;;;3.15;1.75;;;;;;;;;;5093927;28;20071;-72
2022/09/20 04:34:04;;;;;;;2.20;2.10;;;;;;;;;;5093831;28;20527;-72
2022/09/20 04:36:35;;;;;;;1.98;1.88;;;;;;;;;;5093362;28;20514;-73
2022/09/20 04:39:14;;;;;;;2.88;2.10;;;;;;;;;;5071878;28;20032;-73
2022/09/20 04:42:03;;;;;;;3.88;1.90;;;;;;;;;;5073116;28;20032;-73
2022/09/20 04:44:37;;;;;;;2.63;2.25;;;;;;;;;;5072731;28;20036;-73
2022/09/20 04:47:18;;;;;;;2.10;2.00;;;;;;;;;;5072854;28;20036;-73
2022/09/20 04:49:52;;;;;;;2.65;2.10;;;;;;;;;;5073120;28;20476;-73
2022/09/20 04:52:36;;;;;;;2.58;2.20;;;;;;;;;;5071798;28;20039;-73
2022/09/20 04:55:14;;;;;;;1.95;1.85;;;;;;;;;;5073406;28;20021;-73
2022/09/20 04:57:55;;;;;;;1.90;1.75;;;;;;;;;;5073396;28;20024;-73
2022/09/20 05:00:20;;;;;;;;;;;;;;;;;;5073163;28;20761;-73
2022/09/20 05:02:56;;;;;;;2.28;2.10;;;;;;;;;;5071973;28;19943;-73
2022/09/20 05:05:28;;;;;;;2.17;2.00;;;;;;;;;;5071034;28;20507;-73
2022/09/20 05:08:08;;;;;;;2.80;2.58;;;;;;;;;;5070675;28;20435;-73
2022/09/20 05:10:52;;;;;;;2.60;2.38;;;;;;;;;;5072264;28;20033;-73
2022/09/20 05:13:20;;;;;;;3.08;2.78;;;;;;;;;;5072468;28;20055;-73
2022/09/20 05:15:46;;;;;;;3.65;2.53;;;;;;;;;;5072774;28;20020;-73
2022/09/20 05:18:33;;;;;;;2.63;2.42;;;;;;;;;;5076278;28;20377;-73
2022/09/20 05:21:00;;;;;;;2.33;2.20;;;;;;;;;;5076339;28;20060;-73
2022/09/20 05:23:25;;;;;;;2.97;2.72;;;;;;;;;;5058185;28;20384;-73
2022/09/20 05:26:09;;;;;;;3.10;2.90;;;;;;;;;;5076102;28;20029;-73
2022/09/20 05:29:13;;;;;;;4.68;2.85;;;;;;;;;;5074350;28;20043;-73
2022/09/20 05:31:50;;;;;;;3.25;3.05;;;;;;;;;;4977851;28;20038;-73
2022/09/20 05:34:21;;;;;;;3.42;3.13;;;;;;;;;;4993855;28;20042;-73
2022/09/20 05:36:57;;;;;;;3.15;2.95;;;;;;;;;;5041367;28;20063;-73
2022/09/20 05:39:32;;;;;;;3.15;2.85;;;;;;;;;;5038031;28;20033;-72
2022/09/20 05:42:01;;;;;;;4.65;2.95;;;;;;;;;;5055967;28;20112;-73
2022/09/20 05:44:44;;;;;;;2.65;2.42;;;;;;;;;;5055596;28;20021;-72
2022/09/20 05:47:28;;;;;;;2.42;2.33;;;;;;;;;;5054808;28;20420;-73
2022/09/20 05:50:12;;;;;;;2.25;2.08;;;;;;;;;;5055717;28;20029;-73
2022/09/20 05:52:57;;;;;;;2.70;2.15;;;;;;;;;;5055765;28;20025;-76
2022/09/20 05:55:22;;;;;;;3.63;2.83;;;;;;;;;;5054132;28;20037;-76
2022/09/20 05:58:00;;;;;;;3.67;2.78;;;;;;;;;;5054304;28;20516;-76
2022/09/20 06:00:28;;;;;;;2.45;2.35;;;;;;;;;;5055034;28;20021;-76
2022/09/20 06:02:59;;;;;;;2.33;2.10;;;;;;;;;;5054259;28;20021;-76
2022/09/20 06:05:43;;;;;;;2.47;2.38;;;;;;;;;;5054301;28;20459;-76
2022/09/20 06:08:18;;;;;;;3.40;2.60;;;;;;;;;;5054958;28;20029;-76
2022/09/20 06:10:57;;;;;;;3.05;2.65;;;;;;;;;;5054205;28;20068;-73
2022/09/20 06:13:35;;;;;;;3.03;2.80;;;;;;;;;;5040773;28;20025;-74
2022/09/20 06:16:03;;;;;;;2.67;2.58;;;;;;;;;;5058664;28;20090;-74
2022/09/20 06:18:47;;;;;;;4.15;2.45;;;;;;;;;;5056379;28;20017;-73
2022/09/20 06:21:12;;;;;;;3.08;2.88;;;;;;;;;;5055149;28;20151;-74
2022/09/20 06:23:38;;;;;;;2.90;2.70;;;;;;;;;;5038340;28;20605;-74
2022/09/20 06:26:06;;;;;;;3.10;2.80;;;;;;;;;;5056241;28;20043;-74
2022/09/20 06:28:32;;;;;;;3.33;2.45;;;;;;;;;;5055327;28;20032;-73
2022/09/20 06:30:57;;;;;;;3.45;2.40;;;;;;;;;;5055820;28;20033;-73
2022/09/20 06:33:24;;;;;;;2.63;2.20;;;;;;;;;;5056147;28;20031;-73
2022/09/20 06:35:52;;;;;;;2.83;2.38;;;;;;;;;;5055633;28;20091;-73
2022/09/20 06:41:27;;;;;;;2.60;2.40;;;;;;;;;;5096276;28;20034;-73
2022/09/20 06:43:57;;;;;;;2.67;2.47;;;;;;;;;;5078101;28;20055;-73
2022/09/20 06:46:24;;;;;;;2.50;2.30;;;;;;;;;;5077966;28;20028;-74
2022/09/20 06:48:50;;;;;;;2.67;2.40;;;;;;;;;;5095684;28;20020;-74
2022/09/20 06:51:15;;;;;;;2.17;1.98;;;;;;;;;;5095917;28;20043;-74
2022/09/20 06:53:41;;;;;;;2.88;2.20;;;;;;;;;;5076773;28;20020;-74
2022/09/20 06:56:08;;;;;;;2.55;2.20;;;;;;;;;;5077660;28;20032;-74
2022/09/20 06:58:33;;;;;;;2.28;2.17;;;;;;;;;;5095757;28;20027;-74
2022/09/20 07:00:58;;;;;;;2.17;2.08;;;;;;;;;;5095972;28;20036;-74
2022/09/20 07:03:24;;;;;;;3.05;2.03;;;;;;;;;;5077555;28;20065;-74
2022/09/20 07:05:49;;;;;;;3.22;1.90;;;;;;;;;;5095762;28;20035;-74
2022/09/20 07:08:15;;;;;;;2.20;2.10;;;;;;;;;;5093955;28;20380;-74
2022/09/20 07:10:42;;;;;;;2.25;2.05;;;;;;;;;;5093497;28;20038;-74
2022/09/20 07:13:10;;;;;;;2.40;2.30;;;;;;;;;;5093550;28;20024;-74
2022/09/20 07:15:36;;;;;;;2.38;2.28;;;;;;;;;;5075137;28;20430;-74
2022/09/20 07:18:02;;;;;;;2.67;2.50;;;;;;;;;;5076279;28;20019;-74
2022/09/20 07:20:27;;;;;;;2.05;1.80;;;;;;;;;;5094370;28;20016;-74
2022/09/20 07:22:52;;;;;;;2.95;2.72;;;;;;;;;;5094770;28;20019;-74
2022/09/20 07:25:18;;;;;;;2.58;2.28;;;;;;;;;;5095211;28;20094;-74
2022/09/20 07:27:45;;;;;;;2.50;2.30;;;;;;;;;;5095230;28;20028;-74
2022/09/20 07:30:11;;;;;;;2.40;2.28;;;;;;;;;;5076985;28;20077;-74
2022/09/20 07:32:36;;;;;;;2.75;2.10;;;;;;;;;;5077038;28;20069;-74
2022/09/20 07:35:02;;;;;;;1.92;1.83;;;;;;;;;;5094905;28;20479;-74
2022/09/20 07:37:28;;;;;;;3.30;1.77;;;;;;;;;;5094917;28;20097;-74
2022/09/20 07:39:53;;;;;;;2.20;2.10;;;;;;;;;;5095090;28;20028;-74
2022/09/20 07:42:19;;;;;;;2.30;2.10;;;;;;;;;;5094912;28;20059;-74
2022/09/20 07:44:45;;;;;;;2.33;2.20;;;;;;;;;;5094904;28;20035;-74
2022/09/20 07:47:12;;;;;;;2.80;1.98;;;;;;;;;;5094811;28;20042;-74
2022/09/20 07:49:38;;;;;;;2.05;1.95;;;;;;;;;;5094274;28;20028;-74
2022/09/20 07:52:03;;;;;;;6.03;2.28;;;;;;;;;;5075981;28;20383;-74
2022/09/20 07:54:29;;;;;;;2.20;2.10;;;;;;;;;;5075316;28;20036;-74
2022/09/20 07:56:54;;;;;;;1.90;1.80;;;;;;;;;;5093546;28;20024;-74
2022/09/20 07:59:20;;;;;;;3.72;1.58;;;;;;;;;;5075367;28;20020;-74
2022/09/20 08:01:45;;;;;;;2.05;1.95;;;;;;;;;;5093794;28;20434;-74
2022/09/20 08:04:11;;;;;;;3.30;2.00;;;;;;;;;;5093366;28;20065;-74
2022/09/20 08:06:40;;;;;;;2.00;1.90;;;;;;;;;;5093322;28;20032;-74
2022/09/20 08:09:06;;;;;;;1.67;1.58;;;;;;;;;;5093346;28;20024;-74
2022/09/20 08:11:34;;;;;;;3.80;1.80;;;;;;;;;;5074986;28;20016;-74
2022/09/20 08:14:00;;;;;;;6.88;2.40;;;;;;;;;;5075131;28;20032;-74
2022/09/20 08:16:26;;;;;;;2.63;2.03;;;;;;;;;;5074988;28;20024;-74
2022/09/20 08:18:57;;;;;;;1.70;1.60;;;;;;;;;;5075124;28;20020;-74
2022/09/20 08:21:23;;;;;;;2.08;1.98;;;;;;;;;;5093102;28;20365;-74
2022/09/20 08:23:49;;;;;;;2.00;1.90;;;;;;;;;;5074819;28;20035;-74
2022/09/20 08:26:17;;;;;;;3.05;2.10;;;;;;;;;;5093038;28;20463;-74
2022/09/20 08:28:43;;;;;;;2.40;1.92;;;;;;;;;;5093057;28;20014;-74
2022/09/20 08:31:10;;;;;;;2.20;2.10;;;;;;;;;;5091548;28;20024;-74
2022/09/20 08:33:36;;;;;;;3.17;2.47;;;;;;;;;;5088578;28;20016;-74
2022/09/20 08:36:02;;;;;;;2.45;2.25;;;;;;;;;;5091075;28;20028;-74
2022/09/20 08:38:28;;;;;;;2.40;2.20;;;;;;;;;;5092278;28;20562;-74
2022/09/20 08:41:00;;;;;;;2.55;2.38;;;;;;;;;;5073448;28;20051;-73
2022/09/20 08:43:28;;;;;;;9.73;3.08;;;;;;;;;;5092591;28;20460;-73
2022/09/20 08:45:55;;;;;;;8.18;2.95;;;;;;;;;;5091602;28;20030;-73
2022/09/20 08:48:25;;;;;;;14.95;13.57;;;;;;;;;;5092462;28;20036;-73
2022/09/20 08:50:50;;;;;;;13.70;12.43;;;;;;;;;;5073592;28;20131;-73
2022/09/20 08:53:17;;;;;;;5.72;4.03;;;;;;;;;;5074326;28;20515;-73
2022/09/20 08:55:42;;;;;;;2.55;2.35;;;;;;;;;;5092127;28;20020;-72
2022/09/20 08:58:09;;;;;;;4.53;2.50;;;;;;;;;;5091562;28;20039;-73
2022/09/20 09:00:35;;;;;;;4.00;2.42;;;;;;;;;;5092358;28;20051;-73
2022/09/20 09:03:10;;;;;;;2.20;2.10;;;;;;;;;;5074345;28;20114;-73
2022/09/20 09:05:37;;;;;;;2.08;1.90;;;;;;;;;;5092826;28;20016;-73
2022/09/20 09:08:15;;;;;;;2.70;2.53;;;;;;;;;;5092322;28;20027;-73
2022/09/20 09:10:41;;;;;;;2.72;2.53;;;;;;;;;;5093036;28;20533;-76
2022/09/20 09:13:06;;;;;;;5.00;4.60;;;;;;;;;;5090412;28;20024;-73
2022/09/20 09:15:35;;;;;;;2.78;2.58;;;;;;;;;;5093396;28;20049;-73
2022/09/20 09:18:01;;;;;;;2.60;2.40;;;;;;;;;;5057148;28;20024;-73
2022/09/20 09:20:26;;;;;;;2.58;2.33;;;;;;;;;;5091793;28;20028;-73
2022/09/20 09:23:03;;;;;;;2.53;1.85;;;;;;;;;;5092160;28;20020;-73
2022/09/20 09:25:33;;;;;;;2.58;1.77;;;;;;;;;;5091468;28;20114;-73
2022/09/20 09:28:00;;;;;;;2.40;2.30;;;;;;;;;;5091204;28;20104;-74
2022/09/20 09:30:30;;;;;;;3.35;2.30;;;;;;;;;;5074126;28;20471;-73
2022/09/20 09:33:14;;;;;;;2.33;2.22;;;;;;;;;;5091726;28;20020;-74
2022/09/20 09:35:40;;;;;;;1.65;1.55;;;;;;;;;;5092209;28;20468;-74
2022/09/20 09:38:14;;;;;;;2.60;2.40;;;;;;;;;;5091665;28;20080;-74
2022/09/20 09:40:47;;;;;;;1.92;1.70;;;;;;;;;;5092344;28;20024;-74
2022/09/20 09:43:18;;;;;;;1.80;1.70;;;;;;;;;;5074230;28;20775;-74
2022/09/20 09:45:44;;;;;;;3.15;2.05;;;;;;;;;;5073913;28;20039;-74
2022/09/20 09:48:35;;;;;;;2.50;1.60;;;;;;;;;;5091632;28;20387;-74
2022/09/20 09:51:09;;;;;;;1.85;1.75;;;;;;;;;;5087230;28;20051;-73
2022/09/20 09:53:35;;;;;;;1.95;1.85;;;;;;;;;;5091702;28;20075;-74
2022/09/20 09:56:03;;;;;;;2.90;1.83;;;;;;;;;;5091837;28;20027;-74
2022/09/20 09:58:38;;;;;;;3.17;1.90;;;;;;;;;;5091636;28;20085;-74
2022/09/20 10:01:05;;;;;;;17.90;3.08;;;;;;;;;;5091849;28;20042;-74
2022/09/20 10:03:36;;;;;;;11.35;2.28;;;;;;;;;;5093407;28;20012;-74
2022/09/20 10:06:04;;;;;;;2.63;2.40;;;;;;;;;;5095150;28;20024;-75
2022/09/20 10:08:36;;;;;;;8.57;2.35;;;;;;;;;;5095181;28;20081;-75
2022/09/20 10:11:09;;;;;;;2.72;2.30;;;;;;;;;;5077381;28;20115;-75
2022/09/20 10:13:34;;;;;;;9.35;2.15;;;;;;;;;;5095306;28;20381;-75
2022/09/20 10:15:59;;;;;;;4.95;2.70;;;;;;;;;;5077051;28;20043;-75
2022/09/20 10:18:43;;;;;;;2.33;2.13;;;;;;;;;;5095383;28;20029;-75
2022/09/20 10:21:18;;;;;;;1.92;1.83;;;;;;;;;;5095404;28;20114;-75
2022/09/20 10:23:51;;;;;;;13.90;3.40;;;;;;;;;;5095366;28;20036;-75
2022/09/20 10:26:32;;;;;;;18.35;3.45;;;;;;;;;;5095340;28;20078;-75
2022/09/20 10:29:07;;;;;;;5.50;2.67;;;;;;;;;;5094743;28;20448;-75
2022/09/20 10:31:51;;;;;;;2.10;2.00;;;;;;;;;;5095094;28;20031;-75
2022/09/20 10:34:35;;;;;;;2.05;1.95;;;;;;;;;;5095251;28;20039;-75
2022/09/20 10:37:01;;;;;;;3.42;2.20;;;;;;;;;;5076509;28;20028;-75
2022/09/20 10:39:32;;;;;;;1.90;1.80;;;;;;;;;;5076568;28;20043;-75
2022/09/20 10:45:14;;;;;;;2.28;1.85;;;;;;;;;;5094841;28;20042;-75
2022/09/20 10:47:55;;;;;;;1.60;1.50;;;;;;;;;;5094898;28;20020;-75
2022/09/20 10:50:21;;;;;;;1.88;1.77;;;;;;;;;;5094875;28;20028;-75
2022/09/20 10:52:54;;;;;;;1.70;1.60;;;;;;;;;;5094812;28;20016;-75
2022/09/20 10:55:24;;;;;;;1.15;1.15;;;;;;;;;;5076224;28;20028;-75
2022/09/20 10:58:02;;;;;;;1.70;1.58;;;;;;;;;;5094617;28;20107;-75
2022/09/20 11:00:41;;;;;;;1.50;1.20;;;;;;;;;;5094664;28;20069;-75
2022/09/20 11:03:09;;;;;;;1.60;1.50;;;;;;;;;;5094879;28;20468;-75
2022/09/20 11:05:43;;;;;;;1.58;1.25;;;;;;;;;;5094692;28;20020;-74
2022/09/20 11:08:08;;;;;;;1.30;1.20;;;;;;;;;;5094448;28;20170;-76
2022/09/20 11:10:35;;;;;;;2.25;1.00;;;;;;;;;;5094099;28;20066;-74
2022/09/20 11:13:23;;;;;;;1.20;1.17;;;;;;;;;;5094419;28;20483;-74
2022/09/20 11:15:50;;;;;;;1.15;1.13;;;;;;;;;;5046930;28;20130;-74
2022/09/20 11:18:30;;;;;;;2.00;1.02;;;;;;;;;;5074844;28;20031;-74
2022/09/20 11:21:02;;;;;;;1.00;1.00;;;;;;;;;;5093966;28;20472;-74
2022/09/20 11:23:44;;;;;;;2.13;1.27;;;;;;;;;;5094127;28;20392;-74
2022/09/20 11:26:12;;;;;;;1.30;1.20;;;;;;;;;;5076190;28;20105;-74
2022/09/20 11:28:47;;;;;;;1.10;1.10;;;;;;;;;;5076129;28;20492;-74
2022/09/20 11:31:25;;;;;;;1.33;1.23;;;;;;;;;;5075915;28;20043;-78
2022/09/20 11:34:14;;;;;;;3.40;1.00;;;;;;;;;;5093975;28;20020;-75
2022/09/20 11:36:56;;;;;;;1.15;1.10;;;;;;;;;;5062301;28;20054;-75
2022/09/20 11:39:25;;;;;;;1.27;0.90;;;;;;;;;;5093999;28;20036;-75
2022/09/20 11:41:53;;;;;;;0.50;0.50;;;;;;;;;;5093893;28;20396;-74
2022/09/20 11:44:19;;;;;;;0.80;0.80;;;;;;;;;;5093531;28;20219;-74
2022/09/20 11:46:57;;;;;;;0.60;0.60;;;;;;;;;;5093311;28;20024;-74
2022/09/20 11:49:25;;;;;;;1.58;0.70;;;;;;;;;;5093339;28;20024;-74
2022/09/20 11:52:09;;;;;;;3.08;1.40;;;;;;;;;;5075125;28;20023;-74
2022/09/20 11:54:59;;;;;;;0.57;0.57;;;;;;;;;;5094702;28;20464;-74
2022/09/20 11:57:24;;;;;;;1.25;1.10;;;;;;;;;;5094393;28;20024;-74
2022/09/20 11:59:57;;;;;;;1.23;1.02;;;;;;;;;;5094019;28;20015;-74
2022/09/20 12:02:23;;;;;;;1.85;0.88;;;;;;;;;;5094635;28;20036;-74
2022/09/20 12:04:52;;;;;;;2.33;0.90;;;;;;;;;;5096455;28;20023;-75
2022/09/20 12:07:26;;;;;;;0.70;0.70;;;;;;;;;;5097543;28;20028;-74
2022/09/20 12:09:55;;;;;;;0.82;0.80;;;;;;;;;;5095809;28;20040;-75
2022/09/20 12:12:32;;;;;;;0.75;0.75;;;;;;;;;;5093976;28;20028;-75
2022/09/20 12:14:59;;;;;;;1.02;1.00;;;;;;;;;;5076029;28;20032;-75
2022/09/20 12:17:43;;;;;;;1.13;0.85;;;;;;;;;;5059758;28;20479;-75
2022/09/20 12:20:27;;;;;;;1.70;1.02;;;;;;;;;;5094084;28;20111;-75
2022/09/20 12:23:20;;;;;;;1.05;1.05;;;;;;;;;;5075527;28;20388;-74
2022/09/20 12:25:59;;;;;;;3.03;1.38;;;;;;;;;;5093413;28;20028;-74
2022/09/20 12:28:35;;;;;;;1.30;1.20;;;;;;;;;;5094213;28;20080;-74
2022/09/20 12:31:19;;;;;;;1.48;1.20;;;;;;;;;;5075785;28;20044;-73
2022/09/20 12:34:00;;;;;;;0.80;0.80;;;;;;;;;;5075858;28;20078;-74
2022/09/20 12:36:27;;;;;;;1.02;1.00;;;;;;;;;;5075825;28;20468;-74
2022/09/20 12:39:01;;;;;;;2.28;1.20;;;;;;;;;;5094040;28;20089;-74
2022/09/20 12:41:26;;;;;;;5.30;1.33;;;;;;;;;;5059612;28;20494;-74
2022/09/20 12:43:54;;;;;;;53.22;18.40;;;;;;;;;;5076115;28;20099;-74
2022/09/20 12:46:25;;;;;;;58.22;19.38;;;;;;;;;;5075687;28;20085;-74
2022/09/20 12:49:08;;;;;;;21.30;8.38;;;;;;;;;;5094076;28;20032;-74
2022/09/20 12:54:18;;;;;;;1.90;1.65;;;;;;;;;;5093797;28;20036;-74
2022/09/20 12:56:45;;;;;;;2.40;1.35;;;;;;;;;;5075776;28;20020;-74
2022/09/20 12:59:26;;;;;;;1.80;1.70;;;;;;;;;;5093528;28;20063;-74
2022/09/20 13:01:51;;;;;;;;;;;;;;;;;;5094292;28;20024;-75
2022/09/20 13:04:35;;;;;;;1.95;1.85;;;;;;;;;;5093870;28;20390;-75
2022/09/20 13:07:19;;;;;;;2.20;1.70;;;;;;;;;;5092181;28;20605;-76
2022/09/20 13:09:46;;;;;;;1.58;1.30;;;;;;;;;;5073369;28;20036;-76
2022/09/20 13:12:11;;;;;;;3.33;1.27;;;;;;;;;;5091544;28;20034;-76
2022/09/20 13:14:39;;;;;;;1.77;1.42;;;;;;;;;;5091136;28;20118;-76
2022/09/20 13:17:08;;;;;;;3.05;1.80;;;;;;;;;;5090872;28;20016;-76
2022/09/20 13:19:45;;;;;;;3.72;1.80;;;;;;;;;;5090865;28;20024;-76
2022/09/20 13:22:11;;;;;;;1.42;1.33;;;;;;;;;;5090533;28;20081;-76
2022/09/20 13:24:38;;;;;;;3.13;2.63;;;;;;;;;;5071285;28;20028;-76
2022/09/20 13:27:10;;;;;;;5.50;4.93;;;;;;;;;;5071259;28;20028;-76
2022/09/20 13:29:39;;;;;;;2.65;2.45;;;;;;;;;;5088945;28;20032;-75
2022/09/20 13:32:24;;;;;;;3.72;2.72;;;;;;;;;;5071130;28;20372;-75
2022/09/20 13:35:08;;;;;;;2.60;2.28;;;;;;;;;;5089182;28;20035;-75
2022/09/20 13:37:34;;;;;;;1.90;1.70;;;;;;;;;;5090541;28;20201;-75
2022/09/20 13:40:01;;;;;;;1.75;1.65;;;;;;;;;;5074757;28;20074;-76
2022/09/20 13:42:28;;;;;;;1.35;1.25;;;;;;;;;;5093081;28;20107;-76
2022/09/20 13:44:54;;;;;;;1.90;1.25;;;;;;;;;;5092921;28;20027;-75
2022/09/20 13:47:24;;;;;;;1.23;1.00;;;;;;;;;;5092941;28;20032;-75
2022/09/20 13:49:50;;;;;;;1.38;1.27;;;;;;;;;;5092834;28;20132;-75
2022/09/20 13:52:22;;;;;;;2.70;1.23;;;;;;;;;;5093303;28;20154;-75
2022/09/20 13:54:47;;;;;;;1.50;1.40;;;;;;;;;;5093169;28;20043;-75
2022/09/20 13:57:17;;;;;;;1.10;1.10;;;;;;;;;;5092605;28;20016;-75
2022/09/20 13:59:44;;;;;;;2.60;1.50;;;;;;;;;;5092728;28;20055;-75
2022/09/20 14:02:28;;;;;;;1.48;1.38;;;;;;;;;;5092971;28;20425;-75
2022/09/20 14:04:54;;;;;;;2.67;1.77;;;;;;;;;;5074711;28;20035;-75
2022/09/20 14:07:24;;;;;;;1.88;1.73;;;;;;;;;;5093436;28;20062;-77
2022/09/20 14:09:50;;;;;;;1.45;1.35;;;;;;;;;;5093974;28;20480;-72
2022/09/20 14:12:16;;;;;;;1.60;1.50;;;;;;;;;;5075248;28;20035;-74
2022/09/20 14:14:42;;;;;;;1.17;1.17;;;;;;;;;;5094110;28;20039;-74
2022/09/20 14:17:08;;;;;;;1.27;1.13;;;;;;;;;;5075697;28;20012;-73
2022/09/20 14:19:37;;;;;;;2.00;1.15;;;;;;;;;;5094141;28;20081;-73
2022/09/20 14:22:03;;;;;;;1.48;1.38;;;;;;;;;;5094037;28;20475;-74
2022/09/20 14:24:31;;;;;;;2.35;1.30;;;;;;;;;;5093843;28;20024;-74
2022/09/20 14:27:00;;;;;;;2.30;2.20;;;;;;;;;;5075052;28;20016;-75
2022/09/20 14:29:29;;;;;;;1.30;1.20;;;;;;;;;;5096852;28;20027;-75
2022/09/20 14:31:55;;;;;;;1.50;1.10;;;;;;;;;;5096640;28;20148;-75
2022/09/20 14:34:21;;;;;;;3.67;2.83;;;;;;;;;;5096901;28;20042;-75
2022/09/20 14:36:48;;;;;;;3.45;3.15;;;;;;;;;;5078914;28;20024;-76
2022/09/20 14:39:15;;;;;;;4.97;3.45;;;;;;;;;;5078346;28;20137;-76
2022/09/20 14:41:42;;;;;;;1.80;1.70;;;;;;;;;;5096508;28;20028;-76
2022/09/20 14:44:29;;;;;;;3.10;2.08;;;;;;;;;;5096278;28;20028;-75
2022/09/20 14:46:55;;;;;;;5.50;2.63;;;;;;;;;;5096418;28;20058;-75
2022/09/20 14:49:30;;;;;;;2.33;2.13;;;;;;;;;;5095568;28;20019;-75
2022/09/20 14:52:23;;;;;;;4.38;2.67;;;;;;;;;;5096571;28;20065;-75
2022/09/20 14:55:17;;;;;;;4.03;2.15;;;;;;;;;;5040843;28;20384;-75
2022/09/20 14:57:44;;;;;;;5.22;3.30;;;;;;;;;;5073990;28;20093;-74
2022/09/20 15:00:13;;;;;;;9.07;5.65;;;;;;;;;;5098263;28;20020;-73
2022/09/20 15:02:41;;;;;;;3.40;2.78;;;;;;;;;;5098525;28;20024;-73
2022/09/20 15:05:15;;;;;;;5.57;2.90;;;;;;;;;;5097360;28;20020;-73
2022/09/20 15:07:41;;;;;;;3.95;2.92;;;;;;;;;;5096068;28;20028;-73
2022/09/20 15:10:11;;;;;;;4.22;2.30;;;;;;;;;;5075976;28;20395;-73
2022/09/20 15:12:36;;;;;;;1.67;1.58;;;;;;;;;;5094505;28;20036;-73
2022/09/20 15:15:01;;;;;;;3.60;1.98;;;;;;;;;;5095319;28;20027;-73
2022/09/20 15:17:27;;;;;;;5.90;2.50;;;;;;;;;;5095204;28;20020;-73
2022/09/20 15:19:52;;;;;;;3.55;2.10;;;;;;;;;;5094411;28;20016;-73
2022/09/20 15:22:18;;;;;;;1.60;1.50;;;;;;;;;;5094312;28;20024;-73
2022/09/20 15:24:43;;;;;;;1.55;1.45;;;;;;;;;;5094289;28;20026;-73
2022/09/20 15:27:10;;;;;;;1.63;1.52;;;;;;;;;;5094234;28;20078;-73